Time;durP1;ratioP1;P1;durP2;ratioP2;P2;SDS_P1;SDS_P2;PMS_P1;PMS_P2;Temp;Humidity;BMP_temperature;BMP_pressure;BME280_temperature;BME280_humidity;BME280_pressure;Samples;Min_cycle;Max_cycle;Signal;HPM_P1;HPM_P2
2022/12/08 05:31:02;;;;;;;28.20;14.85;;;1.70;79.10;;;;;;5594087;23;20067;-84
2022/12/08 05:33:31;;;;;;;27.15;13.00;;;1.60;79.20;;;;;;4933564;29;20799;-84
2022/12/08 05:35:56;;;;;;;26.30;13.88;;;1.70;79.00;;;;;;4942045;29;20030;-84
2022/12/08 05:38:22;;;;;;;17.13;13.35;;;1.80;79.30;;;;;;4940959;29;20130;-84
2022/12/08 05:40:47;;;;;;;17.25;11.55;;;1.60;78.70;;;;;;4926660;29;20047;-84
2022/12/08 05:43:14;;;;;;;22.02;12.07;;;1.60;79.40;;;;;;4904758;29;20091;-85
2022/12/08 05:45:39;;;;;;;20.23;12.85;;;1.60;80.20;;;;;;4930480;29;20103;-86
2022/12/08 05:48:05;;;;;;;17.10;11.95;;;1.60;80.00;;;;;;4922163;29;20055;-80
2022/12/08 05:50:31;;;;;;;17.40;12.52;;;1.70;80.50;;;;;;4941268;29;20024;-83
2022/12/08 05:52:56;;;;;;;14.55;10.60;;;1.70;79.60;;;;;;4929973;29;20101;-83
2022/12/08 05:55:22;;;;;;;13.00;11.00;;;1.60;80.20;;;;;;4920177;29;20500;-79
2022/12/08 05:57:48;;;;;;;26.20;12.55;;;1.50;79.90;;;;;;4921380;29;20460;-80
2022/12/08 06:00:14;;;;;;;23.90;14.20;;;1.50;80.40;;;;;;4904077;29;20032;-76
2022/12/08 06:02:39;;;;;;;20.55;14.95;;;1.50;81.00;;;;;;4937234;29;20070;-77
2022/12/08 06:05:06;;;;;;;20.30;13.30;;;1.60;80.80;;;;;;4945422;29;20032;-79
2022/12/08 06:07:31;;;;;;;25.60;14.88;;;1.70;80.60;;;;;;4926374;29;20043;-76
2022/12/08 06:09:57;;;;;;;16.40;11.40;;;1.70;80.20;;;;;;4942360;29;20024;-77
2022/12/08 06:12:23;;;;;;;22.00;13.57;;;1.70;80.30;;;;;;4946287;29;20038;-79
2022/12/08 06:14:48;;;;;;;16.85;11.45;;;1.70;79.80;;;;;;4939155;29;20027;-79
2022/12/08 06:17:14;;;;;;;16.02;13.15;;;1.70;80.80;;;;;;4923463;29;20126;-79
2022/12/08 06:19:40;;;;;;;19.05;13.93;;;1.70;80.10;;;;;;4946082;29;20045;-77
2022/12/08 06:22:05;;;;;;;22.90;14.85;;;1.70;80.10;;;;;;4934862;29;20047;-79
2022/12/08 06:24:41;;;;;;;20.63;13.52;;;1.70;80.10;;;;;;4915743;29;20389;-78
2022/12/08 06:27:06;;;;;;;29.02;13.02;;;1.70;80.20;;;;;;4921193;29;20043;-78
2022/12/08 06:29:32;;;;;;;25.58;14.73;;;1.70;80.40;;;;;;4920105;29;20028;-88
2022/12/08 06:31:58;;;;;;;27.20;15.45;;;1.80;80.20;;;;;;4941651;29;20054;-81
2022/12/08 06:34:23;;;;;;;28.17;14.70;;;1.80;79.90;;;;;;4923188;29;20079;-80
2022/12/08 06:36:49;;;;;;;23.67;15.38;;;1.90;79.90;;;;;;4932858;29;20031;-80
2022/12/08 06:39:15;;;;;;;34.25;17.65;;;2.00;79.90;;;;;;4929843;29;20036;-84
2022/12/08 06:44:42;;;;;;;25.55;13.27;;;1.70;80.10;;;;;;4921037;29;20562;-82
2022/12/08 06:47:08;;;;;;;14.50;11.32;;;1.60;80.00;;;;;;4903971;29;20114;-81
2022/12/08 06:49:33;;;;;;;23.13;13.95;;;1.40;80.80;;;;;;4923107;29;20023;-84
2022/12/08 06:51:59;;;;;;;28.40;15.25;;;1.30;82.10;;;;;;4923524;29;20035;-84
2022/12/08 06:54:25;;;;;;;24.70;13.27;;;1.40;82.30;;;;;;4924818;29;20032;-83
2022/12/08 06:56:51;;;;;;;25.10;13.73;;;1.40;81.60;;;;;;4938270;29;20416;-83
2022/12/08 06:59:18;;;;;;;22.90;14.25;;;1.50;82.30;;;;;;4940917;29;20054;-83
2022/12/08 07:01:44;;;;;;;29.63;15.82;;;1.50;82.10;;;;;;4925691;29;20039;-84
2022/12/08 07:04:10;;;;;;;28.67;13.98;;;1.60;82.70;;;;;;4939522;29;20034;-84
2022/12/08 07:06:36;;;;;;;32.25;15.27;;;1.70;82.10;;;;;;4942064;29;20031;-83
2022/12/08 07:09:02;;;;;;;21.80;14.23;;;1.70;82.00;;;;;;4939148;29;20082;-83
2022/12/08 07:11:27;;;;;;;22.17;13.75;;;1.70;81.70;;;;;;4948909;28;20031;-83
2022/12/08 07:13:56;;;;;;;22.73;13.23;;;1.60;80.90;;;;;;4935947;29;20032;-83
2022/12/08 07:16:22;;;;;;;22.70;12.48;;;1.50;81.80;;;;;;4909167;29;20499;-83
2022/12/08 07:18:48;;;;;;;22.08;14.18;;;1.40;81.90;;;;;;4903385;29;20072;-83
2022/12/08 07:21:15;;;;;;;27.17;17.05;;;1.30;81.90;;;;;;4903396;29;20404;-85
2022/12/08 07:23:41;;;;;;;30.55;15.88;;;1.40;82.40;;;;;;4908913;29;20035;-85
2022/12/08 07:26:10;;;;;;;28.00;14.45;;;1.50;82.10;;;;;;4932279;29;20118;-85
2022/12/08 07:28:37;;;;;;;24.63;12.32;;;1.50;82.00;;;;;;4924338;29;20449;-84
2022/12/08 07:31:03;;;;;;;21.27;12.40;;;1.60;82.10;;;;;;4918791;29;20565;-85
2022/12/08 07:33:29;;;;;;;24.90;15.20;;;1.50;81.50;;;;;;4914584;29;20166;-86
2022/12/08 07:35:56;;;;;;;21.70;11.88;;;1.40;81.60;;;;;;4909003;29;20630;-86
2022/12/08 07:38:22;;;;;;;19.38;13.02;;;1.50;82.10;;;;;;4907603;29;20031;-85
2022/12/08 07:40:48;;;;;;;24.17;14.82;;;1.60;82.40;;;;;;4910212;29;20511;-85
2022/12/08 07:43:14;;;;;;;20.48;12.27;;;1.70;82.00;;;;;;4908037;29;20465;-85
2022/12/08 07:45:40;;;;;;;22.48;13.30;;;1.70;81.90;;;;;;4909481;29;20892;-84
2022/12/08 07:48:06;;;;;;;19.27;11.60;;;1.70;81.00;;;;;;4905891;29;20507;-83
2022/12/08 07:50:32;;;;;;;25.35;14.43;;;1.50;81.80;;;;;;4914562;29;20039;-82
2022/12/08 07:52:57;;;;;;;31.00;16.30;;;1.50;82.00;;;;;;4919927;29;20476;-83
2022/12/08 07:55:23;;;;;;;30.80;14.68;;;1.50;81.90;;;;;;4919098;29;20028;-84
2022/12/08 07:57:50;;;;;;;19.92;13.30;;;1.50;81.70;;;;;;4907342;29;20125;-84
2022/12/08 08:00:16;;;;;;;24.88;14.82;;;1.60;82.20;;;;;;4900795;29;20400;-89
2022/12/08 08:02:42;;;;;;;20.83;15.15;;;1.60;81.90;;;;;;4900516;29;20143;-83
2022/12/08 08:05:08;;;;;;;26.08;15.20;;;1.50;81.60;;;;;;4921190;29;20064;-85
2022/12/08 08:07:34;;;;;;;27.58;14.55;;;1.60;82.10;;;;;;4901019;29;20024;-83
2022/12/08 08:09:59;;;;;;;22.40;14.57;;;1.60;82.40;;;;;;4910407;29;20092;-83
2022/12/08 08:12:25;;;;;;;28.90;11.85;;;1.70;82.20;;;;;;4924119;29;20461;-78
2022/12/08 08:14:51;;;;;;;23.55;14.02;;;1.70;82.10;;;;;;4918159;29;20039;-79
2022/12/08 08:17:16;;;;;;;28.17;15.57;;;1.80;82.20;;;;;;4919592;29;20496;-79
2022/12/08 08:19:42;;;;;;;30.20;17.98;;;1.90;82.00;;;;;;4919342;29;20039;-79
2022/12/08 08:22:07;;;;;;;26.42;15.95;;;1.90;81.70;;;;;;4917724;29;20047;-79
2022/12/08 08:24:33;;;;;;;21.38;12.88;;;2.00;81.90;;;;;;4919044;29;20028;-79
2022/12/08 08:26:59;;;;;;;24.70;15.65;;;1.90;81.20;;;;;;4903164;29;20034;-78
2022/12/08 08:29:24;;;;;;;25.48;14.25;;;1.90;81.70;;;;;;4914574;29;20032;-79
2022/12/08 08:31:50;;;;;;;20.42;13.52;;;1.90;81.80;;;;;;4932913;29;20411;-78
2022/12/08 08:34:16;;;;;;;27.45;13.13;;;1.90;81.20;;;;;;4924871;29;20052;-79
2022/12/08 08:36:41;;;;;;;22.17;12.68;;;1.90;81.40;;;;;;4919339;29;20076;-78
2022/12/08 08:39:07;;;;;;;20.60;12.55;;;1.80;81.10;;;;;;4919279;29;20036;-78
2022/12/08 08:41:34;;;;;;;21.52;12.02;;;1.80;81.50;;;;;;4929444;29;20043;-78
2022/12/08 08:44:00;;;;;;;28.63;13.80;;;1.80;81.40;;;;;;4918989;29;20042;-78
2022/12/08 08:46:25;;;;;;;21.42;13.45;;;1.80;81.80;;;;;;4938210;29;20032;-78
2022/12/08 08:48:51;;;;;;;23.45;12.50;;;1.90;81.60;;;;;;4925213;29;20120;-79
2022/12/08 08:51:16;;;;;;;23.15;15.40;;;1.90;81.60;;;;;;4919161;29;20492;-78
2022/12/08 08:53:42;;;;;;;27.25;12.63;;;2.00;81.60;;;;;;4919216;29;20035;-79
2022/12/08 08:56:10;;;;;;;23.60;12.23;;;1.90;81.30;;;;;;4904038;29;20042;-79
2022/12/08 08:58:36;;;;;;;22.30;10.95;;;1.90;81.70;;;;;;4902176;29;20404;-79
2022/12/08 09:01:01;;;;;;;18.38;12.90;;;1.80;82.10;;;;;;4910593;29;20139;-78
2022/12/08 09:03:27;;;;;;;19.75;12.32;;;1.90;82.10;;;;;;4937977;29;20036;-78
2022/12/08 09:05:54;;;;;;;18.60;11.27;;;2.00;81.50;;;;;;4920862;29;20067;-78
2022/12/08 09:08:20;;;;;;;16.55;11.10;;;2.00;81.80;;;;;;4938227;29;20117;-78
2022/12/08 09:10:46;;;;;;;21.88;11.32;;;2.10;81.90;;;;;;4929957;29;20039;-79
2022/12/08 09:13:12;;;;;;;23.02;12.68;;;2.20;81.90;;;;;;4940167;29;20116;-79
2022/12/08 09:15:37;;;;;;;13.02;9.60;;;2.30;81.80;;;;;;4957108;29;20043;-78
2022/12/08 09:18:05;;;;;;;22.35;10.43;;;2.30;81.70;;;;;;4922707;29;20029;-78
2022/12/08 09:20:32;;;;;;;16.13;8.88;;;2.40;81.70;;;;;;4917969;29;20382;-78
2022/12/08 09:22:58;;;;;;;23.65;12.93;;;2.40;81.70;;;;;;4923567;29;20020;-79
2022/12/08 09:25:23;;;;;;;16.90;10.60;;;2.40;81.20;;;;;;4935027;29;20560;-78
2022/12/08 09:27:49;;;;;;;19.23;10.02;;;2.40;81.60;;;;;;4920774;29;20783;-78
2022/12/08 09:30:15;;;;;;;12.52;9.15;;;2.50;81.40;;;;;;4920403;29;20020;-78
2022/12/08 09:32:40;;;;;;;19.20;10.35;;;2.60;81.40;;;;;;4931491;29;20032;-78
2022/12/08 09:35:06;;;;;;;21.23;12.23;;;2.60;81.10;;;;;;4919762;29;20095;-78
2022/12/08 09:37:32;;;;;;;25.38;11.38;;;2.60;81.30;;;;;;4922145;29;20044;-78
2022/12/08 09:39:58;;;;;;;26.00;13.02;;;2.50;81.10;;;;;;4924990;29;20020;-79
2022/12/08 09:43:07;;;;;;;20.20;10.35;;;2.50;81.00;;;;;;4922532;29;20120;-79
2022/12/08 09:45:35;;;;;;;11.68;8.73;;;2.40;81.70;;;;;;4913084;29;20040;-78
2022/12/08 09:48:17;;;;;;;16.55;9.98;;;2.40;81.50;;;;;;4922010;29;20023;-78
2022/12/08 09:50:51;;;;;;;16.42;10.60;;;2.40;81.60;;;;;;4921888;29;20409;-78
2022/12/08 09:53:31;;;;;;;14.93;9.32;;;2.40;81.90;;;;;;4905158;29;20408;-79
2022/12/08 09:56:21;;;;;;;15.60;8.85;;;2.30;81.40;;;;;;4921863;29;20374;-79
2022/12/08 09:59:21;;;;;;;21.85;11.07;;;2.30;81.90;;;;;;4921677;29;20040;-78
2022/12/08 10:01:47;;;;;;;20.27;12.35;;;2.50;82.00;;;;;;4942155;29;20032;-78
2022/12/08 10:04:25;;;;;;;18.80;10.00;;;2.70;81.30;;;;;;4922066;29;20042;-78
2022/12/08 10:07:19;;;;;;;18.15;10.68;;;2.70;81.60;;;;;;4910398;29;20395;-78
2022/12/08 10:10:01;;;;;;;13.98;9.75;;;2.80;81.30;;;;;;4940864;29;20035;-79
2022/12/08 10:12:48;;;;;;;11.65;9.07;;;2.70;81.70;;;;;;4936128;29;20032;-79
2022/12/08 10:15:45;;;;;;;16.42;10.60;;;2.60;81.20;;;;;;4921595;29;20032;-78
2022/12/08 10:18:17;;;;;;;17.45;10.95;;;2.70;82.00;;;;;;4921465;29;20071;-79
2022/12/08 10:20:47;;;;;;;17.38;9.93;;;2.80;81.90;;;;;;4921510;29;20032;-79
2022/12/08 10:23:35;;;;;;;16.02;10.55;;;2.80;81.70;;;;;;4927847;29;20032;-79
2022/12/08 10:26:06;;;;;;;14.13;9.48;;;2.80;81.40;;;;;;4938030;29;20385;-79
2022/12/08 10:28:33;;;;;;;14.10;9.15;;;2.70;81.60;;;;;;4904219;29;20535;-79
2022/12/08 10:30:59;;;;;;;16.15;9.07;;;2.60;81.60;;;;;;4921202;29;20512;-79
2022/12/08 10:33:27;;;;;;;15.10;10.20;;;2.70;82.30;;;;;;4921184;29;20028;-79
2022/12/08 10:35:59;;;;;;;16.70;9.38;;;2.80;81.80;;;;;;4915560;29;20036;-79
2022/12/08 10:38:28;;;;;;;15.20;8.85;;;2.80;82.00;;;;;;4923511;29;20043;-79
2022/12/08 10:41:11;;;;;;;17.73;9.70;;;2.80;81.80;;;;;;4931445;29;20103;-79
2022/12/08 10:43:43;;;;;;;21.27;11.20;;;2.80;81.70;;;;;;4923218;29;20036;-79
2022/12/08 10:46:18;;;;;;;23.92;12.75;;;2.90;82.10;;;;;;4920138;29;20500;-79
2022/12/08 10:49:27;;;;;;;30.90;14.35;;;3.10;82.00;;;;;;4920576;29;20097;-78
2022/12/08 10:51:53;;;;;;;23.70;12.10;;;3.10;81.60;;;;;;4914216;29;20036;-78
2022/12/08 10:54:34;;;;;;;21.20;11.95;;;3.00;81.60;;;;;;4921065;29;20597;-79
2022/12/08 10:57:00;;;;;;;21.80;10.43;;;2.90;82.10;;;;;;4923136;29;20049;-79
2022/12/08 10:59:26;;;;;;;18.27;11.77;;;2.90;82.20;;;;;;4920915;29;20058;-78
2022/12/08 11:01:55;;;;;;;16.10;10.98;;;3.00;82.30;;;;;;4903889;29;20028;-78
2022/12/08 11:04:35;;;;;;;19.20;10.18;;;3.10;82.10;;;;;;4920781;29;20052;-79
2022/12/08 11:07:04;;;;;;;24.63;12.18;;;3.20;82.20;;;;;;4903542;29;20039;-79
2022/12/08 11:09:47;;;;;;;16.52;8.73;;;3.00;81.60;;;;;;4920446;29;20408;-79
2022/12/08 11:12:15;;;;;;;19.13;11.50;;;2.90;81.90;;;;;;4953461;29;20016;-79
2022/12/08 11:14:46;;;;;;;19.42;9.88;;;2.80;82.20;;;;;;4943433;28;20042;-79
2022/12/08 11:17:15;;;;;;;18.75;10.40;;;2.90;82.40;;;;;;4917946;29;20056;-78
2022/12/08 11:19:54;;;;;;;17.35;11.82;;;3.00;82.50;;;;;;4926308;29;20032;-79
2022/12/08 11:22:24;;;;;;;23.23;10.57;;;3.10;82.40;;;;;;4903695;29;20523;-79
2022/12/08 11:25:10;;;;;;;16.08;9.48;;;3.20;82.10;;;;;;4904020;29;20063;-79
2022/12/08 11:27:38;;;;;;;22.73;10.73;;;3.20;81.80;;;;;;4920126;29;20039;-78
2022/12/08 11:30:36;;;;;;;14.52;10.23;;;3.30;82.40;;;;;;4923599;29;20145;-79
2022/12/08 11:33:16;;;;;;;19.83;10.48;;;3.30;82.10;;;;;;4931577;29;20515;-78
2022/12/08 11:35:46;;;;;;;16.85;9.23;;;3.40;81.90;;;;;;4939129;29;20039;-87
2022/12/08 11:38:23;;;;;;;14.38;8.60;;;3.50;81.90;;;;;;4906302;29;20060;-89
2022/12/08 11:40:56;;;;;;;18.85;11.15;;;3.50;81.80;;;;;;4912913;29;20038;-88
2022/12/08 11:43:45;;;;;;;14.07;9.73;;;3.50;81.50;;;;;;4921390;29;20027;-78
2022/12/08 11:46:24;;;;;;;21.40;11.18;;;3.50;81.70;;;;;;4938886;29;20074;-79
2022/12/08 11:48:50;;;;;;;20.20;10.77;;;3.50;81.50;;;;;;4938829;29;20065;-79
2022/12/08 11:51:31;;;;;;;24.00;11.73;;;3.50;82.00;;;;;;4921933;29;20028;-80
2022/12/08 11:54:02;;;;;;;18.75;11.00;;;3.50;82.00;;;;;;4923845;29;20051;-79
2022/12/08 11:56:36;;;;;;;16.02;9.50;;;3.60;81.80;;;;;;4902642;29;20070;-81
2022/12/08 11:59:14;;;;;;;22.63;9.88;;;3.60;81.50;;;;;;4932928;29;20475;-81
2022/12/08 12:01:39;;;;;;;14.07;10.23;;;3.60;81.50;;;;;;4938603;29;20496;-82
2022/12/08 12:04:17;;;;;;;15.05;9.30;;;3.70;81.40;;;;;;4921291;29;20053;-78
2022/12/08 12:06:48;;;;;;;16.73;9.57;;;3.70;81.50;;;;;;4921506;29;20388;-81
2022/12/08 12:09:25;;;;;;;22.52;10.68;;;3.70;81.60;;;;;;4953450;29;20078;-82
2022/12/08 12:12:14;;;;;;;24.30;13.07;;;3.80;81.20;;;;;;4936120;29;20028;-85
2022/12/08 12:14:55;;;;;;;18.95;11.02;;;3.90;81.30;;;;;;4957896;28;20024;-83
2022/12/08 12:17:46;;;;;;;23.42;10.88;;;3.90;81.40;;;;;;4929517;29;20035;-78
2022/12/08 12:20:24;;;;;;;;;;;3.90;81.40;;;;;;4919796;29;20036;-79
2022/12/08 12:23:05;;;;;;;12.75;8.35;;;3.90;81.20;;;;;;4902304;29;20382;-80
2022/12/08 12:25:31;;;;;;;;;;;3.90;81.20;;;;;;4932438;29;20024;-82
2022/12/08 12:28:04;;;;;;;16.98;9.43;;;3.90;81.10;;;;;;4938356;29;20400;-76
2022/12/08 12:31:00;;;;;;;16.85;9.75;;;3.90;81.40;;;;;;4937117;29;20051;-74
2022/12/08 12:33:26;;;;;;;19.70;10.45;;;3.90;81.50;;;;;;4921063;29;20083;-76
2022/12/08 12:35:56;;;;;;;19.17;11.45;;;4.00;81.30;;;;;;4914922;29;20040;-76
2022/12/08 12:41:14;;;;;;;14.88;7.40;;;4.10;81.20;;;;;;4919912;29;20107;-79
2022/12/08 12:44:06;;;;;;;11.05;6.93;;;4.10;81.20;;;;;;4919187;29;20034;-76
2022/12/08 12:46:49;;;;;;;17.75;8.70;;;4.10;81.30;;;;;;4921782;29;20111;-77
2022/12/08 12:49:36;;;;;;;15.65;8.25;;;4.20;81.30;;;;;;4919170;29;20491;-78
2022/12/08 12:52:09;;;;;;;14.27;7.95;;;4.20;81.10;;;;;;4915953;29;20031;-79
2022/12/08 12:54:34;;;;;;;16.05;9.93;;;4.30;81.00;;;;;;4919173;29;20062;-80
2022/12/08 12:57:03;;;;;;;17.65;8.52;;;4.30;80.90;;;;;;4902326;29;20040;-79
2022/12/08 12:59:43;;;;;;;16.58;8.55;;;4.40;80.90;;;;;;4919228;29;20028;-79
2022/12/08 13:02:23;;;;;;;23.02;9.43;;;4.50;80.60;;;;;;4919089;29;20067;-78
2022/12/08 13:05:12;;;;;;;13.88;7.97;;;4.40;80.80;;;;;;4923915;29;20145;-78
2022/12/08 13:07:47;;;;;;;19.75;12.18;;;4.50;80.80;;;;;;4932538;29;20542;-79
2022/12/08 13:10:20;;;;;;;13.00;8.70;;;4.50;80.30;;;;;;4939831;29;20051;-79
2022/12/08 13:13:06;;;;;;;13.07;7.47;;;4.40;80.60;;;;;;4940172;29;20055;-79
2022/12/08 13:15:36;;;;;;;12.85;8.32;;;4.40;80.70;;;;;;4921746;29;20031;-79
2022/12/08 13:18:04;;;;;;;13.90;9.15;;;4.30;80.90;;;;;;4922675;29;20416;-79
2022/12/08 13:20:29;;;;;;;13.75;7.82;;;4.40;81.10;;;;;;4925995;29;20023;-79
2022/12/08 13:23:11;;;;;;;16.80;10.45;;;4.50;80.90;;;;;;4941728;29;20106;-79
2022/12/08 13:25:39;;;;;;;12.48;8.35;;;4.50;80.70;;;;;;4941524;29;20459;-78
2022/12/08 13:28:26;;;;;;;20.50;13.32;;;4.50;80.50;;;;;;4937912;29;20032;-80
2022/12/08 13:31:01;;;;;;;34.13;18.17;;;4.50;80.50;;;;;;4905435;29;20052;-81
2022/12/08 13:33:36;;;;;;;17.13;10.63;;;4.50;80.60;;;;;;4922261;29;20028;-79
2022/12/08 13:36:13;;;;;;;25.65;14.20;;;4.50;80.50;;;;;;4906097;29;20404;-79
2022/12/08 13:38:44;;;;;;;19.17;10.27;;;4.50;80.40;;;;;;4919764;29;20036;-79
2022/12/08 13:41:25;;;;;;;11.57;7.85;;;4.40;80.80;;;;;;4921993;29;20921;-79
2022/12/08 13:44:03;;;;;;;10.20;6.82;;;4.40;81.00;;;;;;4905368;29;20024;-82
2022/12/08 13:46:50;;;;;;;13.88;8.43;;;4.40;80.90;;;;;;4922270;29;20031;-82
2022/12/08 13:49:21;;;;;;;17.08;9.35;;;4.30;81.10;;;;;;4922020;29;20034;-84
2022/12/08 13:51:49;;;;;;;18.10;8.95;;;4.40;81.20;;;;;;4922205;29;20040;-83
2022/12/08 13:54:28;;;;;;;14.93;10.20;;;4.40;81.30;;;;;;4905098;29;20020;-82
2022/12/08 13:56:55;;;;;;;18.33;12.37;;;4.50;81.10;;;;;;4929826;29;20058;-84
2022/12/08 13:59:32;;;;;;;12.77;8.70;;;4.50;80.90;;;;;;4944918;28;20287;-86
2022/12/08 14:02:40;;;;;;;18.42;9.02;;;4.50;81.00;;;;;;4949447;29;20026;-83
2022/12/08 14:05:06;;;;;;;13.80;9.25;;;4.50;81.00;;;;;;4930743;29;20042;-82
2022/12/08 14:07:32;;;;;;;10.25;6.38;;;4.60;81.10;;;;;;4930244;29;20079;-81
2022/12/08 14:10:01;;;;;;;18.33;10.13;;;4.50;80.90;;;;;;4942458;29;20084;-81
2022/12/08 14:12:29;;;;;;;12.38;8.32;;;4.50;81.20;;;;;;4945420;29;20026;-81
2022/12/08 14:15:01;;;;;;;16.70;10.95;;;4.60;81.20;;;;;;4930618;29;20479;-82
2022/12/08 14:17:27;;;;;;;18.02;8.73;;;4.60;81.10;;;;;;4930952;29;20028;-82
2022/12/08 14:19:57;;;;;;;19.40;9.55;;;4.60;81.00;;;;;;4949594;28;20027;-82
2022/12/08 14:22:23;;;;;;;14.25;9.05;;;4.60;81.00;;;;;;4948364;28;20403;-81
2022/12/08 14:24:53;;;;;;;17.45;9.32;;;4.60;81.20;;;;;;4928494;29;20040;-82
2022/12/08 14:27:24;;;;;;;17.98;10.45;;;4.70;81.20;;;;;;4948631;29;20029;-83
2022/12/08 14:29:59;;;;;;;15.73;10.80;;;4.70;81.20;;;;;;4946092;29;20522;-82
2022/12/08 14:32:42;;;;;;;14.80;9.45;;;4.70;81.00;;;;;;4947829;29;20036;-82
2022/12/08 14:35:07;;;;;;;16.55;9.93;;;4.70;81.00;;;;;;4948359;29;20024;-82
2022/12/08 14:37:47;;;;;;;27.70;15.23;;;4.70;81.20;;;;;;4929661;29;20035;-81
2022/12/08 14:40:23;;;;;;;21.00;11.82;;;4.70;81.20;;;;;;4947784;29;20039;-82
2022/12/08 14:43:05;;;;;;;20.60;10.20;;;4.70;81.30;;;;;;4945141;29;20031;-82
2022/12/08 14:45:33;;;;;;;24.58;12.82;;;4.80;81.10;;;;;;4927921;29;20027;-82
2022/12/08 14:48:37;;;;;;;38.22;17.13;;;4.80;81.10;;;;;;4945293;29;20027;-82
2022/12/08 14:51:06;;;;;;;36.88;16.15;;;4.80;81.10;;;;;;4846123;29;20064;-82
2022/12/08 14:53:37;;;;;;;31.73;15.43;;;4.80;81.30;;;;;;4845603;29;20405;-82
2022/12/08 14:56:16;;;;;;;27.92;13.15;;;4.80;81.20;;;;;;4903555;29;20043;-82
2022/12/08 14:58:41;;;;;;;24.63;13.10;;;4.80;81.20;;;;;;4931135;29;20487;-82
2022/12/08 15:01:10;;;;;;;24.65;11.20;;;4.80;81.20;;;;;;4930290;29;20035;-81
2022/12/08 15:03:36;;;;;;;18.20;9.25;;;4.70;81.10;;;;;;4948337;29;20024;-81
2022/12/08 15:06:05;;;;;;;18.92;9.63;;;4.70;81.60;;;;;;4947392;29;20128;-82
2022/12/08 15:08:31;;;;;;;17.63;9.32;;;4.70;81.60;;;;;;4942802;29;20027;-82
2022/12/08 15:11:26;;;;;;;19.73;11.60;;;4.70;81.70;;;;;;4947091;29;20031;-82
2022/12/08 15:13:53;;;;;;;15.07;9.32;;;4.70;82.00;;;;;;4944259;29;20102;-82
2022/12/08 15:16:36;;;;;;;16.25;9.77;;;4.70;81.90;;;;;;4930261;29;20076;-82
2022/12/08 15:19:04;;;;;;;14.75;9.32;;;4.70;81.90;;;;;;4946617;29;20571;-82
2022/12/08 15:21:35;;;;;;;23.77;12.30;;;4.70;82.00;;;;;;4947065;28;20067;-82
2022/12/08 15:24:01;;;;;;;16.42;10.68;;;4.60;82.00;;;;;;4947572;29;20399;-82
2022/12/08 15:26:29;;;;;;;24.00;11.82;;;4.70;81.90;;;;;;4928953;29;20027;-82
2022/12/08 15:28:54;;;;;;;19.40;10.25;;;4.70;81.80;;;;;;4936822;29;20030;-82
2022/12/08 15:31:20;;;;;;;23.27;10.90;;;4.70;81.90;;;;;;4912067;29;20504;-81
2022/12/08 15:33:46;;;;;;;23.13;10.88;;;4.70;82.00;;;;;;4909129;29;20036;-82
2022/12/08 15:36:12;;;;;;;17.70;10.80;;;4.70;82.00;;;;;;4928257;29;20122;-82
2022/12/08 15:38:38;;;;;;;19.88;11.95;;;4.70;82.00;;;;;;4926427;29;20032;-82
2022/12/08 15:41:04;;;;;;;39.72;18.55;;;4.70;81.90;;;;;;4911386;29;20087;-82
2022/12/08 15:43:32;;;;;;;27.58;14.88;;;4.60;81.90;;;;;;4928477;29;20031;-81
2022/12/08 15:45:58;;;;;;;29.48;15.20;;;4.60;82.00;;;;;;4909371;29;20032;-82
2022/12/08 15:48:26;;;;;;;22.42;11.85;;;4.60;81.90;;;;;;4912707;29;20023;-82
2022/12/08 15:50:53;;;;;;;17.30;10.90;;;4.60;82.00;;;;;;4928171;29;20039;-82
2022/12/08 15:53:19;;;;;;;28.77;15.38;;;4.60;82.10;;;;;;4927690;29;20023;-81
2022/12/08 15:55:45;;;;;;;17.75;9.70;;;4.60;82.00;;;;;;4927816;29;20480;-82
2022/12/08 15:58:23;;;;;;;16.83;10.05;;;4.60;82.10;;;;;;4928947;29;20035;-82
2022/12/08 16:00:50;;;;;;;17.02;11.35;;;4.60;82.10;;;;;;4927353;29;20119;-82
2022/12/08 16:03:27;;;;;;;22.85;13.77;;;4.60;82.20;;;;;;4903609;29;20020;-81
2022/12/08 16:05:54;;;;;;;15.05;10.07;;;4.50;82.10;;;;;;4925578;29;20641;-83
2022/12/08 16:08:20;;;;;;;20.73;13.25;;;4.60;81.90;;;;;;4927266;29;20027;-84
2022/12/08 16:10:47;;;;;;;22.52;11.50;;;4.60;82.00;;;;;;4913187;29;20042;-84
2022/12/08 16:16:04;;;;;;;19.83;12.68;;;4.60;82.00;;;;;;4935841;29;20163;-84
2022/12/08 16:18:39;;;;;;;17.55;10.85;;;4.60;82.00;;;;;;4903637;29;20032;-83
2022/12/08 16:21:05;;;;;;;19.15;12.15;;;4.60;82.00;;;;;;4923815;29;20028;-83
2022/12/08 16:23:31;;;;;;;19.60;12.07;;;4.60;82.00;;;;;;4930729;29;20385;-83
2022/12/08 16:25:57;;;;;;;19.50;11.48;;;4.60;82.00;;;;;;4938618;29;20119;-83
2022/12/08 16:28:23;;;;;;;18.58;11.32;;;4.60;82.00;;;;;;4929564;29;20032;-84
2022/12/08 16:30:49;;;;;;;16.63;11.20;;;4.60;82.00;;;;;;4947563;28;20046;-84
2022/12/08 16:33:14;;;;;;;24.80;14.20;;;4.60;82.00;;;;;;4942214;29;20028;-83
2022/12/08 16:35:41;;;;;;;22.10;14.65;;;4.60;82.00;;;;;;4947194;29;20028;-83
2022/12/08 16:38:07;;;;;;;25.98;16.25;;;4.60;82.00;;;;;;4939419;29;20039;-83
2022/12/08 16:42:38;;;;;;;32.20;21.30;;;4.60;82.00;;;;;;4943468;29;20074;-83
2022/12/08 16:43:18;;;;;;;26.30;17.17;;;4.60;82.00;;;;;;4938558;29;20032;-83
2022/12/08 16:45:44;;;;;;;19.70;12.45;;;4.60;82.00;;;;;;4950917;28;20027;-83
2022/12/08 16:48:13;;;;;;;22.70;13.13;;;4.60;82.00;;;;;;4928761;29;20042;-83
2022/12/08 16:50:43;;;;;;;26.55;13.90;;;4.60;82.10;;;;;;4919302;29;20031;-83
2022/12/08 16:53:11;;;;;;;29.77;15.63;;;4.60;82.00;;;;;;4922864;29;20039;-84
2022/12/08 16:55:38;;;;;;;20.67;13.45;;;4.60;82.00;;;;;;4934245;29;20039;-84
2022/12/08 16:58:03;;;;;;;18.23;12.90;;;4.60;82.10;;;;;;4932959;29;20028;-84
2022/12/08 17:00:37;;;;;;;22.10;15.63;;;4.60;82.00;;;;;;4924361;29;20036;-83
2022/12/08 17:03:04;;;;;;;19.45;12.63;;;4.60;82.20;;;;;;4927183;29;20028;-83
2022/12/08 17:05:30;;;;;;;25.02;12.45;;;4.60;82.20;;;;;;4909998;29;20030;-84
2022/12/08 17:07:56;;;;;;;21.05;11.65;;;4.60;82.10;;;;;;4917723;29;20040;-84
2022/12/08 17:10:27;;;;;;;19.08;10.60;;;4.60;82.10;;;;;;4929539;29;20025;-85
2022/12/08 17:12:53;;;;;;;23.80;12.20;;;4.60;82.20;;;;;;4963176;29;20066;-85
2022/12/08 17:15:21;;;;;;;24.23;11.45;;;4.60;82.10;;;;;;4961160;29;20015;-81
2022/12/08 17:17:47;;;;;;;22.33;13.52;;;4.60;82.10;;;;;;4924800;29;20048;-80
2022/12/08 17:20:16;;;;;;;21.73;13.77;;;4.50;82.20;;;;;;4927894;29;20472;-79
2022/12/08 17:22:42;;;;;;;21.33;10.77;;;4.40;82.20;;;;;;4930137;29;20075;-80
2022/12/08 17:25:08;;;;;;;27.77;15.07;;;4.40;82.10;;;;;;4934949;29;20047;-81
2022/12/08 17:27:34;;;;;;;21.00;11.23;;;4.40;82.10;;;;;;4905103;29;20028;-80
2022/12/08 17:30:00;;;;;;;21.85;13.63;;;4.30;82.20;;;;;;4927560;29;20070;-83
2022/12/08 17:32:25;;;;;;;25.88;15.27;;;4.30;82.20;;;;;;4914686;29;20188;-79
2022/12/08 17:34:51;;;;;;;24.55;14.35;;;4.30;82.30;;;;;;4922133;29;20063;-79
2022/12/08 17:37:17;;;;;;;18.42;13.02;;;4.30;82.30;;;;;;4933312;29;20063;-79
2022/12/08 17:39:43;;;;;;;20.45;12.18;;;4.30;82.30;;;;;;4936684;29;20123;-85
2022/12/08 17:42:09;;;;;;;24.60;15.70;;;4.40;82.30;;;;;;4924864;29;20024;-85
2022/12/08 17:44:35;;;;;;;20.25;12.20;;;4.40;82.30;;;;;;4938311;29;20111;-82
2022/12/08 17:47:01;;;;;;;23.83;11.82;;;4.40;82.40;;;;;;4911937;29;20021;-82
2022/12/08 17:49:31;;;;;;;20.42;12.93;;;4.40;82.30;;;;;;4930509;29;20019;-83
2022/12/08 17:52:02;;;;;;;16.85;10.10;;;4.40;82.30;;;;;;4890305;29;20223;-77
2022/12/08 17:54:27;;;;;;;;;;;4.40;82.20;;;;;;4899240;29;20027;-78
2022/12/08 17:56:57;;;;;;;22.17;12.18;;;4.30;82.20;;;;;;4939329;29;20005;-82
2022/12/08 17:59:24;;;;;;;18.90;11.00;;;4.30;82.30;;;;;;4920767;29;20055;-80
2022/12/08 18:01:53;;;;;;;19.10;13.38;;;4.30;82.20;;;;;;4938508;29;20542;-81
2022/12/08 18:04:20;;;;;;;21.45;13.68;;;4.40;82.20;;;;;;4942109;29;20087;-81
2022/12/08 18:06:46;;;;;;;24.95;13.18;;;4.40;82.10;;;;;;4932302;29;20040;-82
2022/12/08 18:09:11;;;;;;;28.85;15.38;;;4.30;82.20;;;;;;4940158;29;20019;-82
2022/12/08 18:11:37;;;;;;;28.70;15.45;;;4.30;82.20;;;;;;4934856;29;20392;-81
2022/12/08 18:14:09;;;;;;;24.95;14.43;;;4.30;82.20;;;;;;4930987;29;20574;-82
2022/12/08 18:16:37;;;;;;;23.35;13.52;;;4.30;82.40;;;;;;4937570;29;20032;-83
2022/12/08 18:19:04;;;;;;;24.45;12.75;;;4.30;82.30;;;;;;4930657;29;20024;-80
2022/12/08 18:21:30;;;;;;;28.83;15.07;;;4.20;82.30;;;;;;4924460;29;20092;-84
2022/12/08 18:23:55;;;;;;;35.75;16.80;;;4.20;82.40;;;;;;4928152;29;20080;-80
2022/12/08 18:26:21;;;;;;;36.40;17.73;;;4.20;82.30;;;;;;4930049;29;20038;-78
2022/12/08 18:28:47;;;;;;;50.22;22.05;;;4.20;82.40;;;;;;4929346;29;20137;-80
2022/12/08 18:31:18;;;;;;;46.15;21.35;;;4.20;82.60;;;;;;4914112;29;20044;-78
2022/12/08 18:33:46;;;;;;;40.80;17.85;;;4.20;82.60;;;;;;4909800;29;20035;-78
2022/12/08 18:36:16;;;;;;;41.90;18.85;;;4.20;82.60;;;;;;4924398;29;20119;-79